createdAt,value
2018-12-01T00:00:21.342Z,6.00
2018-12-01T00:02:55.737Z,5.63
2018-12-01T00:05:30.477Z,6.07
2018-12-01T00:08:04.896Z,5.33
2018-12-01T00:10:39.109Z,5.90
2018-12-01T00:13:13.398Z,4.90
2018-12-01T00:15:48.251Z,4.97
2018-12-01T00:18:22.586Z,5.27
2018-12-01T00:20:57.325Z,5.27
2018-12-01T00:23:31.689Z,6.50
2018-12-01T00:26:06.041Z,5.10
2018-12-01T00:28:40.241Z,4.80
2018-12-01T00:31:14.538Z,5.50
2018-12-01T00:33:49.833Z,6.00
2018-12-01T00:36:23.956Z,6.30
2018-12-01T00:38:58.281Z,5.67
2018-12-01T00:41:32.606Z,5.60
2018-12-01T00:44:06.737Z,5.87
2018-12-01T00:46:40.977Z,5.20
2018-12-01T00:49:15.214Z,4.80
2018-12-01T00:51:50.532Z,5.40
2018-12-01T00:54:24.994Z,5.13
2018-12-01T00:56:59.341Z,5.33
2018-12-01T00:59:33.665Z,4.70
2018-12-01T01:02:13.269Z,5.70
2018-12-01T01:04:47.393Z,5.03
2018-12-01T01:07:21.813Z,4.70
2018-12-01T01:09:56.173Z,5.60
2018-12-01T01:12:30.711Z,4.97
2018-12-01T01:15:06.454Z,4.57
2018-12-01T01:17:40.639Z,4.83
2018-12-01T01:20:15.930Z,4.50
2018-12-01T01:22:50.681Z,5.87
2018-12-01T01:25:25.097Z,4.97
2018-12-01T01:27:59.374Z,4.80
2018-12-01T01:30:33.717Z,4.80
2018-12-01T01:33:32.639Z,6.00
2018-12-01T01:36:07.067Z,5.40
2018-12-01T01:38:41.405Z,4.60
2018-12-01T01:41:16.386Z,4.23
2018-12-01T01:43:50.637Z,4.60
2018-12-01T01:46:24.829Z,4.77
2018-12-01T01:48:58.994Z,4.47
2018-12-01T01:51:33.241Z,4.20
2018-12-01T01:54:07.733Z,4.90
2018-12-01T01:56:42.009Z,4.43
2018-12-01T01:59:16.378Z,4.93
2018-12-01T02:01:50.796Z,4.37
2018-12-01T02:04:25.049Z,4.57
2018-12-01T02:06:59.457Z,5.00
2018-12-01T02:09:33.645Z,4.83
2018-12-01T02:12:08.962Z,4.77
2018-12-01T02:14:43.297Z,4.07
2018-12-01T02:17:18.086Z,4.37
2018-12-01T02:19:52.426Z,4.47
2018-12-01T02:22:26.684Z,4.00
2018-12-01T02:27:41.391Z,5.67
2018-12-01T02:30:19.170Z,5.50
2018-12-01T02:32:53.418Z,4.90
2018-12-01T02:35:28.858Z,5.33
2018-12-01T02:38:03.404Z,4.60
2018-12-01T02:40:37.602Z,4.30
2018-12-01T02:43:12.094Z,5.20
2018-12-01T02:45:57.881Z,5.20
2018-12-01T02:48:32.249Z,3.90
2018-12-01T02:51:06.701Z,4.40
2018-12-01T02:53:40.929Z,4.07
2018-12-01T02:56:15.295Z,4.07
2018-12-01T02:58:49.694Z,5.23
2018-12-01T03:01:24.090Z,5.70
2018-12-01T03:03:58.261Z,4.33
2018-12-01T03:06:32.553Z,4.27
2018-12-01T03:09:08.704Z,4.03
2018-12-01T03:11:43.015Z,4.77
2018-12-01T03:14:17.490Z,4.20
2018-12-01T03:16:51.785Z,4.73
2018-12-01T03:21:50.785Z,5.80
2018-12-01T03:24:24.984Z,4.77
2018-12-01T03:26:59.282Z,4.00
2018-12-01T03:29:33.501Z,5.43
2018-12-01T03:32:09.686Z,4.60
2018-12-01T03:34:43.974Z,3.93
2018-12-01T03:37:18.408Z,4.20
2018-12-01T03:39:52.891Z,3.87
2018-12-01T03:42:27.310Z,3.80
2018-12-01T03:45:01.697Z,5.23
2018-12-01T03:47:35.905Z,5.13
2018-12-01T03:50:12.184Z,4.40
2018-12-01T03:52:46.521Z,4.83
2018-12-01T03:55:29.256Z,4.87
2018-12-01T03:58:03.709Z,4.20
2018-12-01T04:00:38.070Z,4.67
2018-12-01T04:03:12.425Z,4.07
2018-12-01T04:05:46.880Z,4.20
2018-12-01T04:08:21.105Z,4.87
2018-12-01T04:10:55.460Z,3.90
2018-12-01T04:13:29.777Z,3.80
2018-12-01T04:16:04.288Z,4.87
2018-12-01T04:18:38.570Z,4.83
2018-12-01T04:21:12.981Z,5.30
2018-12-01T04:23:48.150Z,4.63
2018-12-01T04:26:22.562Z,4.67
2018-12-01T04:28:56.985Z,5.40
2018-12-01T04:31:31.465Z,4.53
2018-12-01T04:34:06.081Z,5.40
2018-12-01T04:36:40.489Z,5.10
2018-12-01T04:39:14.741Z,5.13
2018-12-01T04:41:49.117Z,4.70
2018-12-01T04:44:24.550Z,4.63
2018-12-01T04:46:58.940Z,5.07
2018-12-01T04:49:33.334Z,5.00
2018-12-01T04:52:07.672Z,5.27
2018-12-01T04:54:42.049Z,4.87
2018-12-01T04:57:16.341Z,5.17
2018-12-01T04:59:50.715Z,4.63
2018-12-01T05:02:24.998Z,5.07
2018-12-01T05:04:59.230Z,5.33
2018-12-01T05:07:33.753Z,5.10
2018-12-01T05:10:10.245Z,4.70
2018-12-01T05:12:44.512Z,5.70
2018-12-01T05:15:19.443Z,4.17
2018-12-01T05:17:53.801Z,5.80
2018-12-01T05:20:28.280Z,4.40
2018-12-01T05:23:02.750Z,5.40
2018-12-01T05:25:37.070Z,5.03
2018-12-01T05:28:11.477Z,4.70
2018-12-01T05:30:45.669Z,4.40
2018-12-01T05:33:19.914Z,4.57
2018-12-01T05:35:54.336Z,5.00
2018-12-01T05:38:28.560Z,4.57
2018-12-01T05:41:02.793Z,3.37
2018-12-01T05:43:37.181Z,4.97
2018-12-01T05:46:11.498Z,4.93
2018-12-01T05:48:45.893Z,4.33
2018-12-01T05:51:20.501Z,4.93
2018-12-01T05:53:54.760Z,5.97
2018-12-01T05:56:29.180Z,5.20
2018-12-01T05:59:08.663Z,4.63
2018-12-01T06:01:42.905Z,4.30
2018-12-01T06:04:17.361Z,3.80
2018-12-01T06:06:51.758Z,4.20
2018-12-01T06:09:26.014Z,5.17
2018-12-01T06:12:00.737Z,5.83
2018-12-01T06:14:35.006Z,4.50
2018-12-01T06:17:09.378Z,5.50
2018-12-01T06:19:43.798Z,5.10
2018-12-01T06:22:18.152Z,4.93
2018-12-01T06:24:52.497Z,4.87
2018-12-01T06:27:26.807Z,4.87
2018-12-01T06:30:01.217Z,5.33
2018-12-01T06:32:36.482Z,4.80
2018-12-01T06:35:10.827Z,5.30
2018-12-01T06:37:45.149Z,5.83
2018-12-01T06:40:20.513Z,4.33
2018-12-01T06:42:55.010Z,4.83
2018-12-01T06:45:29.338Z,5.90
2018-12-01T06:48:04.310Z,5.07
2018-12-01T06:50:38.760Z,4.70
2018-12-01T06:53:13.121Z,5.83
2018-12-01T06:55:47.770Z,5.20
2018-12-01T06:58:22.000Z,5.67
2018-12-01T07:00:56.325Z,7.00
2018-12-01T07:03:30.713Z,5.77
2018-12-01T07:06:05.065Z,4.67
2018-12-01T07:08:39.446Z,5.70
2018-12-01T07:11:13.883Z,5.90
2018-12-01T07:13:48.254Z,4.50
2018-12-01T07:16:23.626Z,5.63
2018-12-01T07:19:13.942Z,5.23
2018-12-01T07:21:48.313Z,5.60
2018-12-01T07:24:22.722Z,4.90
2018-12-01T07:26:56.841Z,5.27
2018-12-01T07:29:31.121Z,5.70
2018-12-01T07:32:05.545Z,6.50
2018-12-01T07:34:39.913Z,5.07
2018-12-01T07:37:14.209Z,6.80
2018-12-01T07:39:49.685Z,5.37
2018-12-01T07:42:24.861Z,5.37
2018-12-01T07:44:59.205Z,4.70
2018-12-01T07:47:34.045Z,5.83
2018-12-01T07:50:11.141Z,5.77
2018-12-01T07:52:46.997Z,5.20
2018-12-01T07:55:21.349Z,5.50
2018-12-01T07:57:55.713Z,5.00
2018-12-01T08:00:30.197Z,5.30
2018-12-01T08:03:04.437Z,6.33
2018-12-01T08:05:38.785Z,5.40
2018-12-01T08:08:13.041Z,5.10
2018-12-01T08:10:47.281Z,5.27
2018-12-01T08:13:21.516Z,6.37
2018-12-01T08:15:55.969Z,6.10
2018-12-01T08:18:30.156Z,5.70
2018-12-01T08:21:05.337Z,5.57
2018-12-01T08:23:39.661Z,5.30
2018-12-01T08:26:13.925Z,5.93
2018-12-01T08:28:48.293Z,4.93
2018-12-01T08:31:22.703Z,5.50
2018-12-01T08:33:56.990Z,5.20
2018-12-01T08:36:31.314Z,5.10
2018-12-01T08:39:08.438Z,4.67
2018-12-01T08:41:42.599Z,4.90
2018-12-01T08:44:16.913Z,5.50
2018-12-01T08:46:51.241Z,4.97
2018-12-01T08:49:25.691Z,4.77
2018-12-01T08:52:00.037Z,5.73
2018-12-01T08:54:34.344Z,5.03
2018-12-01T08:57:08.677Z,5.37
2018-12-01T08:59:43.394Z,4.97
2018-12-01T09:02:17.717Z,4.50
2018-12-01T09:04:52.038Z,4.70
2018-12-01T09:07:26.229Z,4.20
2018-12-01T09:10:00.591Z,4.40
2018-12-01T09:12:34.825Z,4.40
2018-12-01T09:15:11.574Z,3.80
2018-12-01T09:17:45.824Z,3.67
2018-12-01T09:20:20.276Z,3.67
2018-12-01T09:22:54.487Z,3.87
2018-12-01T09:25:28.769Z,3.70
2018-12-01T09:28:03.086Z,3.40
2018-12-01T09:30:38.999Z,4.17
2018-12-01T09:33:13.379Z,5.03
2018-12-01T09:35:47.678Z,3.63
2018-12-01T09:38:21.889Z,4.00
2018-12-01T09:40:56.152Z,4.17
2018-12-01T09:43:30.433Z,3.80
2018-12-01T09:46:04.704Z,4.33
2018-12-01T09:48:39.018Z,4.33
2018-12-01T09:51:13.357Z,3.83
2018-12-01T09:53:47.751Z,4.63
2018-12-01T09:56:22.148Z,3.73
2018-12-01T09:58:56.542Z,2.93
2018-12-01T10:01:30.791Z,3.20
2018-12-01T10:04:05.704Z,3.90
2018-12-01T10:06:39.943Z,3.60
2018-12-01T10:09:14.213Z,4.40
2018-12-01T10:11:50.588Z,3.80
2018-12-01T10:14:22.787Z,4.60
2018-12-01T10:16:57.161Z,4.07
2018-12-01T10:19:31.541Z,3.83
2018-12-01T10:22:05.909Z,3.20
2018-12-01T10:24:40.433Z,5.30
2018-12-01T10:27:14.634Z,4.10
2018-12-01T10:29:48.925Z,3.70
2018-12-01T10:32:23.211Z,3.97
2018-12-01T10:34:57.667Z,3.67
2018-12-01T10:37:32.044Z,3.80
2018-12-01T10:40:10.453Z,3.73
2018-12-01T10:42:44.809Z,3.53
2018-12-01T10:45:19.886Z,3.87
2018-12-01T10:47:54.100Z,4.40
2018-12-01T10:50:28.709Z,3.63
2018-12-01T10:53:03.402Z,3.70
2018-12-01T10:55:37.637Z,4.00
2018-12-01T10:58:14.183Z,3.80
2018-12-01T11:00:54.758Z,4.47
2018-12-01T11:03:35.114Z,3.60
2018-12-01T11:06:12.336Z,3.87
2018-12-01T11:08:47.766Z,3.63
2018-12-01T11:11:21.962Z,4.07
2018-12-01T11:13:56.270Z,3.47
2018-12-01T11:16:30.678Z,4.23
2018-12-01T11:19:05.381Z,4.13
2018-12-01T11:21:39.662Z,4.80
2018-12-01T11:24:13.945Z,4.23
2018-12-01T11:26:48.946Z,4.40
2018-12-01T11:29:23.169Z,3.90
2018-12-01T11:31:57.505Z,3.57
2018-12-01T11:34:31.761Z,4.40
2018-12-01T11:37:06.029Z,4.30
2018-12-01T11:39:40.458Z,4.33
2018-12-01T11:42:14.865Z,3.90
2018-12-01T11:44:49.161Z,5.40
2018-12-01T11:47:23.674Z,4.30
2018-12-01T11:49:57.893Z,4.23
2018-12-01T11:52:32.149Z,3.97
2018-12-01T11:55:09.395Z,3.10
2018-12-01T11:57:44.011Z,3.20
2018-12-01T12:00:26.264Z,3.63
2018-12-01T12:03:00.549Z,3.60
2018-12-01T12:05:34.988Z,3.40
2018-12-01T12:08:24.301Z,5.17
2018-12-01T12:10:58.528Z,3.73
2018-12-01T12:13:32.893Z,4.13
2018-12-01T12:16:07.122Z,3.97
2018-12-01T12:18:41.457Z,3.20
2018-12-01T12:21:15.787Z,3.47
2018-12-01T12:23:50.169Z,4.33
2018-12-01T12:26:24.522Z,3.90
2018-12-01T12:28:58.781Z,3.10
2018-12-01T12:31:33.069Z,3.63
2018-12-01T12:34:07.378Z,3.57
2018-12-01T12:36:41.732Z,3.40
2018-12-01T12:39:16.209Z,3.43
2018-12-01T12:41:50.510Z,3.10
2018-12-01T12:44:24.865Z,3.60
2018-12-01T12:46:59.409Z,3.60
2018-12-01T12:49:33.897Z,3.43
2018-12-01T12:52:08.214Z,3.10
2018-12-01T12:54:42.738Z,3.03
2018-12-01T12:57:17.059Z,3.30
2018-12-01T12:59:51.405Z,3.13
2018-12-01T13:02:25.870Z,3.10
2018-12-01T13:05:00.130Z,3.63
2018-12-01T13:07:34.427Z,3.00
2018-12-01T13:10:12.044Z,3.73
2018-12-01T13:12:46.437Z,4.10
2018-12-01T13:15:20.814Z,2.80
2018-12-01T13:17:55.071Z,3.70
2018-12-01T13:20:29.476Z,3.57
2018-12-01T13:23:04.589Z,3.77
2018-12-01T13:25:39.978Z,4.40
2018-12-01T13:28:15.965Z,3.57
2018-12-01T13:30:55.003Z,4.63
2018-12-01T13:33:29.440Z,3.20
2018-12-01T13:36:04.041Z,3.10
2018-12-01T13:38:38.342Z,3.63
2018-12-01T13:41:12.721Z,4.53
2018-12-01T13:43:47.022Z,4.70
2018-12-01T13:46:21.541Z,4.73
2018-12-01T13:48:55.876Z,4.30
2018-12-01T13:51:30.201Z,4.03
2018-12-01T13:54:04.901Z,3.10
2018-12-01T13:56:39.272Z,3.07
2018-12-01T13:59:13.773Z,3.57
2018-12-01T14:01:48.065Z,4.33
2018-12-01T14:04:22.413Z,3.17
2018-12-01T14:06:56.752Z,2.57
2018-12-01T14:09:31.589Z,2.80
2018-12-01T14:12:06.095Z,2.80
2018-12-01T14:14:40.462Z,2.77
2018-12-01T14:17:14.825Z,2.20
2018-12-01T14:19:49.045Z,2.67
2018-12-01T14:22:23.628Z,3.60
2018-12-01T14:24:57.980Z,2.60
2018-12-01T14:27:32.257Z,3.03
2018-12-01T14:30:12.007Z,2.37
2018-12-01T14:32:46.411Z,2.67
2018-12-01T14:35:25.185Z,2.20
2018-12-01T14:38:07.174Z,2.70
2018-12-01T14:40:42.757Z,2.67
2018-12-01T14:43:17.190Z,2.43
2018-12-01T14:45:52.103Z,2.57
2018-12-01T14:48:26.829Z,2.40
2018-12-01T14:51:01.329Z,2.70
2018-12-01T14:53:35.723Z,2.80
2018-12-01T14:56:10.033Z,2.83
2018-12-01T14:58:44.385Z,2.93
2018-12-01T15:01:22.125Z,2.83
2018-12-01T15:03:58.022Z,2.37
2018-12-01T15:06:32.565Z,2.63
2018-12-01T15:09:09.130Z,2.43
2018-12-01T15:11:44.095Z,2.53
2018-12-01T15:14:18.281Z,2.53
2018-12-01T15:16:52.761Z,2.70
2018-12-01T15:19:27.009Z,3.60
2018-12-01T15:22:01.402Z,3.77
2018-12-01T15:24:35.706Z,3.23
2018-12-01T15:27:09.977Z,3.03
2018-12-01T15:29:45.021Z,2.90
2018-12-01T15:32:19.342Z,2.80
2018-12-01T15:34:53.603Z,2.00
2018-12-01T15:37:28.166Z,2.40
2018-12-01T15:40:03.038Z,2.83
2018-12-01T15:42:37.225Z,2.70
2018-12-01T15:45:13.938Z,2.53
2018-12-01T15:47:48.174Z,2.20
2018-12-01T15:50:22.543Z,2.20
2018-12-01T15:52:57.798Z,1.93
2018-12-01T15:55:33.186Z,1.90
2018-12-01T15:58:08.106Z,3.10
2018-12-01T16:00:43.009Z,2.50
2018-12-01T16:03:17.448Z,2.90
2018-12-01T16:05:51.970Z,3.00
2018-12-01T16:08:26.354Z,2.83
2018-12-01T16:11:00.617Z,2.13
2018-12-01T16:13:35.037Z,2.87
2018-12-01T16:16:09.917Z,2.50
2018-12-01T16:18:44.220Z,2.10
2018-12-01T16:21:18.581Z,2.30
2018-12-01T16:23:53.044Z,2.63
2018-12-01T16:26:30.964Z,2.60
2018-12-01T16:29:05.886Z,2.07
2018-12-01T16:31:40.461Z,2.97
2018-12-01T16:34:14.724Z,2.57
2018-12-01T16:36:49.149Z,2.50
2018-12-01T16:39:23.537Z,3.90
2018-12-01T16:41:58.002Z,2.97
2018-12-01T16:44:32.278Z,2.50
2018-12-01T16:47:06.848Z,3.50
2018-12-01T16:49:41.056Z,2.93
2018-12-01T16:52:15.457Z,2.73
2018-12-01T16:54:49.797Z,2.53
2018-12-01T16:57:24.134Z,2.80
2018-12-01T16:59:58.571Z,2.97
2018-12-01T17:02:32.845Z,2.60
2018-12-01T17:05:08.833Z,2.80
2018-12-01T17:07:43.254Z,3.20
2018-12-01T17:10:18.693Z,2.93
2018-12-01T17:12:55.369Z,2.20
2018-12-01T17:15:29.665Z,2.67
2018-12-01T17:18:04.297Z,2.60
2018-12-01T17:20:38.775Z,2.73
2018-12-01T17:23:16.197Z,4.13
2018-12-01T17:25:50.985Z,5.70
2018-12-01T17:28:25.413Z,3.23
2018-12-01T17:30:59.877Z,3.30
2018-12-01T17:33:34.065Z,2.83
2018-12-01T17:36:08.340Z,3.20
2018-12-01T17:38:42.738Z,3.90
2018-12-01T17:41:24.493Z,2.80
2018-12-01T17:44:05.063Z,3.13
2018-12-01T17:46:39.246Z,3.20
2018-12-01T17:49:13.713Z,6.93
2018-12-01T17:51:48.292Z,4.80
2018-12-01T17:54:22.520Z,4.27
2018-12-01T17:56:57.519Z,3.97
2018-12-01T17:59:31.891Z,3.50
2018-12-01T18:02:06.605Z,3.47
2018-12-01T18:04:40.813Z,2.93
2018-12-01T18:07:15.238Z,2.90
2018-12-01T18:09:49.624Z,2.97
2018-12-01T18:12:24.004Z,3.53
2018-12-01T18:14:58.414Z,2.90
2018-12-01T18:17:32.737Z,3.53
2018-12-01T18:20:14.947Z,3.30
2018-12-01T18:22:57.682Z,3.00
2018-12-01T18:26:03.944Z,2.60
2018-12-01T18:28:42.674Z,3.00
2018-12-01T18:31:25.921Z,3.67
2018-12-01T18:34:22.233Z,3.67
2018-12-01T18:36:56.485Z,5.30
2018-12-01T18:39:30.769Z,3.80
2018-12-01T18:42:05.036Z,4.40
2018-12-01T18:44:39.298Z,4.77
2018-12-01T18:47:13.610Z,4.93
2018-12-01T18:49:47.825Z,4.30
2018-12-01T18:52:22.113Z,3.73
2018-12-01T18:54:56.405Z,4.43
2018-12-01T18:57:30.710Z,3.10
2018-12-01T19:00:10.305Z,3.00
2018-12-01T19:02:45.061Z,2.90
2018-12-01T19:05:19.421Z,2.50
2018-12-01T19:07:53.699Z,2.10
2018-12-01T19:10:28.257Z,2.80
2018-12-01T19:13:02.470Z,2.70
2018-12-01T19:15:36.828Z,2.90
2018-12-01T19:18:11.216Z,5.50
2018-12-01T19:20:45.645Z,4.23
2018-12-01T19:23:20.183Z,2.80
2018-12-01T19:25:54.577Z,3.00
2018-12-01T19:28:28.930Z,5.10
2018-12-01T19:31:03.097Z,2.80
2018-12-01T19:33:37.577Z,5.70
2018-12-01T19:36:11.860Z,2.03
2018-12-01T19:38:46.120Z,4.77
2018-12-01T19:41:20.416Z,3.10
2018-12-01T19:43:54.741Z,1.70
2018-12-01T19:46:29.045Z,2.80
2018-12-01T19:49:03.421Z,2.70
2018-12-01T19:51:37.703Z,2.50
2018-12-01T19:54:12.005Z,3.80
2018-12-01T19:56:46.313Z,2.30
2018-12-01T19:59:20.713Z,1.67
2018-12-01T20:01:54.866Z,3.20
2018-12-01T20:05:32.440Z,2.93
2018-12-01T20:08:07.501Z,2.90
2018-12-01T20:10:48.445Z,4.03
2018-12-01T20:13:28.170Z,2.10
2018-12-01T20:16:22.901Z,2.20
2018-12-01T20:18:57.154Z,2.73
2018-12-01T20:21:31.514Z,2.90
2018-12-01T20:24:07.121Z,2.43
2018-12-01T20:26:42.145Z,2.10
2018-12-01T20:29:16.423Z,2.47
2018-12-01T20:31:50.813Z,1.73
2018-12-01T20:34:25.118Z,2.50
2018-12-01T20:37:03.245Z,2.00
2018-12-01T20:39:40.956Z,2.10
2018-12-01T20:42:15.124Z,3.20
2018-12-01T20:44:49.342Z,2.43
2018-12-01T20:47:23.600Z,1.90
2018-12-01T20:49:57.922Z,1.83
2018-12-01T20:52:32.284Z,1.80
2018-12-01T20:55:12.253Z,2.17
2018-12-01T20:57:48.317Z,2.53
2018-12-01T21:00:22.555Z,1.87
2018-12-01T21:02:56.885Z,2.30
2018-12-01T21:05:31.310Z,2.33
2018-12-01T21:08:06.425Z,2.50
2018-12-01T21:10:45.302Z,2.07
2018-12-01T21:13:19.515Z,2.20
2018-12-01T21:15:54.166Z,2.27
2018-12-01T21:18:28.409Z,2.33
2018-12-01T21:21:02.669Z,2.50
2018-12-01T21:23:36.873Z,2.17
2018-12-01T21:26:11.273Z,3.83
2018-12-01T21:28:45.653Z,2.63
2018-12-01T21:31:19.916Z,2.20
2018-12-01T21:33:54.146Z,2.33
2018-12-01T21:36:28.406Z,2.17
2018-12-01T21:39:02.744Z,1.90
2018-12-01T21:41:37.065Z,2.30
2018-12-01T21:44:11.294Z,2.23
2018-12-01T21:46:45.448Z,1.90
2018-12-01T21:49:19.838Z,3.60
2018-12-01T21:51:54.310Z,2.37
2018-12-01T21:54:28.586Z,1.80
2018-12-01T21:57:03.195Z,2.57
2018-12-01T21:59:37.440Z,2.70
2018-12-01T22:02:11.590Z,2.90
2018-12-01T22:04:45.909Z,2.50
2018-12-01T22:07:20.396Z,2.27
2018-12-01T22:09:54.753Z,2.90
2018-12-01T22:12:28.975Z,2.63
2018-12-01T22:15:03.160Z,2.33
2018-12-01T22:17:37.434Z,2.43
2018-12-01T22:20:14.393Z,2.20
2018-12-01T22:22:49.164Z,3.10
2018-12-01T22:25:23.569Z,2.63
2018-12-01T22:27:57.894Z,2.40
2018-12-01T22:30:32.325Z,2.70
2018-12-01T22:33:10.613Z,2.40
2018-12-01T22:35:46.580Z,2.17
2018-12-01T22:38:20.847Z,2.77
2018-12-01T22:40:55.297Z,2.57
2018-12-01T22:43:30.028Z,2.30
2018-12-01T22:46:04.573Z,2.30
2018-12-01T22:48:38.811Z,2.33
2018-12-01T22:51:13.203Z,1.90
2018-12-01T22:53:47.613Z,2.63
2018-12-01T22:56:22.001Z,2.40
2018-12-01T22:58:56.117Z,3.10
2018-12-01T23:01:30.453Z,3.00
2018-12-01T23:04:05.537Z,3.23
2018-12-01T23:06:39.813Z,3.13
2018-12-01T23:09:14.061Z,3.80
2018-12-01T23:11:49.345Z,10.73
2018-12-01T23:14:23.466Z,5.40
2018-12-01T23:16:57.754Z,10.30
2018-12-01T23:19:32.256Z,5.33
2018-12-01T23:22:06.627Z,5.17
2018-12-01T23:24:40.949Z,18.23
2018-12-01T23:27:15.317Z,13.63
2018-12-01T23:29:49.544Z,6.37
2018-12-01T23:32:23.978Z,2.93
2018-12-01T23:34:58.413Z,12.80
2018-12-01T23:37:32.699Z,10.97
2018-12-01T23:40:09.178Z,9.00
2018-12-01T23:42:43.313Z,19.10
2018-12-01T23:45:18.750Z,2.57
2018-12-01T23:47:53.018Z,2.73
2018-12-01T23:50:27.478Z,2.10
2018-12-01T23:53:10.966Z,2.30
2018-12-01T23:55:45.329Z,1.70
2018-12-01T23:58:19.600Z,1.77
